Terminal Aerodrome Forecast
Issued by NWS

Home | Current Version | Previous Version | Text Only | Print | Product List | Glossary On
Versions: 1 2 3 4 5 6 7 8 9 10 11 12 13 14 15 16
000
FTUS41 KGYX 301900 AAA
TAFAUG
TAF AMD
KAUG 301900Z 3019/3118 18010G20KT P6SM BKN030
     FM310000 19004KT P6SM SCT030
     FM310500 20005KT 2SM BR BKN004
     FM310600 20004KT 1/2SM FG OVC002
     FM311330 21006KT P6SM BKN015=

USA.gov is the U.S. government's official web portal to all federal, state and local government web resources and services.